Time;durP1;ratioP1;P1;durP2;ratioP2;P2;SDS_P1;SDS_P2;PMS_P1;PMS_P2;Temp;Humidity;BMP_temperature;BMP_pressure;BME280_temperature;BME280_humidity;BME280_pressure;Samples;Min_cycle;Max_cycle;Signal;HPM_P1;HPM_P2
2022/02/06 00:01:35;;;;;;;1.08;1.08;;;6.00;99.90;;;;;;5024510;28;20232;-78
2022/02/06 00:04:04;;;;;;;1.42;0.80;;;5.90;99.90;;;;;;5033822;28;20199;-79
2022/02/06 00:06:33;;;;;;;0.65;0.52;;;5.90;99.90;;;;;;5033697;28;20594;-79
2022/02/06 00:08:59;;;;;;;0.70;0.60;;;5.90;99.90;;;;;;5033942;28;20568;-79
2022/02/06 00:11:26;;;;;;;5.93;1.15;;;5.90;99.90;;;;;;5037696;28;20195;-79
2022/02/06 00:13:53;;;;;;;1.35;1.25;;;5.90;99.90;;;;;;5036792;28;20695;-79
2022/02/06 00:16:20;;;;;;;2.25;1.48;;;5.90;99.90;;;;;;5037165;28;20203;-80
2022/02/06 00:18:46;;;;;;;1.17;1.10;;;6.00;99.90;;;;;;5037094;28;20661;-79
2022/02/06 00:21:17;;;;;;;2.38;1.40;;;5.90;99.90;;;;;;5037018;28;20198;-79
2022/02/06 00:23:47;;;;;;;1.52;1.42;;;6.00;99.90;;;;;;5036842;28;20187;-79
2022/02/06 00:26:22;;;;;;;0.57;0.50;;;6.00;99.90;;;;;;5036347;28;20237;-79
2022/02/06 00:28:59;;;;;;;1.05;0.85;;;6.00;99.90;;;;;;5036564;28;20175;-80
2022/02/06 00:31:34;;;;;;;1.90;1.17;;;6.00;99.90;;;;;;5038163;28;20206;-80
2022/02/06 00:34:31;;;;;;;1.85;0.70;;;6.10;99.90;;;;;;5036897;28;20206;-79
2022/02/06 00:39:44;;;;;;;5.72;1.23;;;6.10;99.90;;;;;;5035160;28;20255;-79
2022/02/06 00:42:12;;;;;;;10.25;2.58;;;6.10;99.90;;;;;;5036258;28;20203;-80
2022/02/06 00:44:39;;;;;;;1.70;1.27;;;6.20;99.90;;;;;;5036054;28;20611;-79
2022/02/06 00:47:06;;;;;;;1.73;1.00;;;6.20;99.90;;;;;;5036104;28;20200;-80
2022/02/06 00:49:33;;;;;;;1.83;0.70;;;6.20;99.90;;;;;;5036833;28;20229;-79
2022/02/06 00:52:07;;;;;;;0.50;0.40;;;6.20;99.90;;;;;;5036692;28;20201;-80
2022/02/06 00:54:34;;;;;;;0.88;0.85;;;6.20;99.90;;;;;;5036767;28;20199;-79
2022/02/06 00:57:01;;;;;;;1.30;0.90;;;6.20;99.90;;;;;;5036539;28;20219;-79
2022/02/06 00:59:27;;;;;;;2.15;1.27;;;6.20;99.90;;;;;;5035613;28;20231;-80
2022/02/06 01:01:54;;;;;;;1.98;1.10;;;6.20;99.90;;;;;;5035530;28;20206;-80
2022/02/06 01:04:21;;;;;;;0.55;0.47;;;6.30;99.90;;;;;;5036594;28;20203;-80
2022/02/06 01:06:47;;;;;;;1.40;0.88;;;6.30;99.90;;;;;;5036204;28;20276;-79
2022/02/06 01:09:17;;;;;;;1.98;0.60;;;6.30;99.90;;;;;;5036017;28;20724;-80
2022/02/06 01:11:44;;;;;;;0.93;0.80;;;6.30;99.90;;;;;;5036220;28;20199;-81
2022/02/06 01:14:19;;;;;;;1.50;0.93;;;6.30;99.90;;;;;;5035932;28;20221;-82
2022/02/06 01:16:54;;;;;;;9.55;2.20;;;6.30;99.90;;;;;;5036228;28;20634;-81
2022/02/06 01:19:25;;;;;;;0.88;0.70;;;6.30;99.90;;;;;;5035754;28;20224;-81
2022/02/06 01:22:01;;;;;;;1.52;1.42;;;6.30;99.90;;;;;;5035340;28;20573;-81
2022/02/06 01:24:39;;;;;;;2.20;1.00;;;6.30;99.90;;;;;;5035897;28;20203;-80
2022/02/06 01:27:11;;;;;;;1.60;1.35;;;6.40;99.90;;;;;;5035947;28;20192;-81
2022/02/06 01:29:45;;;;;;;1.25;0.80;;;6.50;99.90;;;;;;5036204;28;20222;-82
2022/02/06 01:32:15;;;;;;;13.00;0.70;;;6.50;99.90;;;;;;5036003;28;20270;-82
2022/02/06 01:34:46;;;;;;;1.25;0.90;;;6.50;99.90;;;;;;5036046;28;20224;-80
2022/02/06 01:37:22;;;;;;;4.60;1.73;;;6.50;99.90;;;;;;5036470;28;20210;-80
2022/02/06 01:40:05;;;;;;;1.50;0.80;;;6.50;99.90;;;;;;5035305;28;20258;-81
2022/02/06 01:42:37;;;;;;;0.75;0.73;;;6.50;99.90;;;;;;5035784;28;20573;-81
2022/02/06 02:01:49;;;;;;;0.82;0.82;;;6.30;99.90;;;;;;5035389;28;20219;-79
2022/02/06 02:04:28;;;;;;;4.53;1.02;;;6.30;99.90;;;;;;5034643;28;20204;-80
2022/02/06 02:07:17;;;;;;;2.63;2.53;;;6.30;99.90;;;;;;5033711;28;20317;-79
2022/02/06 02:12:50;;;;;;;7.47;1.65;;;6.20;99.90;;;;;;5035433;28;20277;-82
2022/02/06 02:18:26;;;;;;;2.97;1.45;;;6.20;99.90;;;;;;5017557;28;20199;-81
2022/02/06 02:21:12;;;;;;;1.45;0.80;;;6.20;99.90;;;;;;5036123;28;20290;-78
2022/02/06 02:23:57;;;;;;;8.07;2.95;;;6.20;99.90;;;;;;5036632;28;20176;-79
2022/02/06 02:26:43;;;;;;;3.80;0.82;;;6.20;99.90;;;;;;5038226;28;20179;-79
2022/02/06 02:32:31;;;;;;;9.15;1.45;;;6.20;99.90;;;;;;5050579;28;20206;-80
2022/02/06 02:43:57;;;;;;;0.90;0.90;;;6.20;99.90;;;;;;5048286;28;20218;-79
2022/02/06 02:46:27;;;;;;;3.10;1.33;;;6.20;99.90;;;;;;5042923;28;20261;-79
2022/02/06 02:48:56;;;;;;;1.83;0.98;;;6.20;99.90;;;;;;5050976;28;20227;-79
2022/02/06 02:51:25;;;;;;;0.90;0.90;;;6.20;99.90;;;;;;5048750;28;20196;-78
2022/02/06 02:53:57;;;;;;;1.35;0.60;;;6.20;99.90;;;;;;5051223;28;20215;-81
2022/02/06 02:56:36;;;;;;;4.03;1.95;;;6.20;99.90;;;;;;5054307;28;20195;-79
2022/02/06 02:59:10;;;;;;;9.02;1.65;;;6.20;99.90;;;;;;5051823;28;20188;-79
2022/02/06 03:01:42;;;;;;;1.08;0.40;;;6.20;99.90;;;;;;5049160;28;20207;-81
2022/02/06 03:04:09;;;;;;;3.50;0.95;;;6.20;99.90;;;;;;5039297;28;20275;-80
2022/02/06 03:06:35;;;;;;;1.83;0.95;;;6.20;99.90;;;;;;5037255;28;20689;-80
2022/02/06 03:09:04;;;;;;;7.55;1.45;;;6.20;99.90;;;;;;5042208;28;20195;-80
2022/02/06 03:11:31;;;;;;;5.00;0.95;;;6.20;99.90;;;;;;5045645;28;20200;-80
2022/02/06 03:14:04;;;;;;;3.92;1.88;;;6.20;99.90;;;;;;5034954;28;20212;-80
2022/02/06 03:16:34;;;;;;;0.65;0.65;;;6.20;99.90;;;;;;5034621;28;20290;-80
2022/02/06 03:19:07;;;;;;;0.70;0.70;;;6.20;99.90;;;;;;5034221;28;20180;-80
2022/02/06 03:21:34;;;;;;;2.05;0.93;;;6.20;99.90;;;;;;5034210;28;20191;-80
2022/02/06 03:24:18;;;;;;;0.80;0.80;;;6.20;99.90;;;;;;5033843;28;20203;-80
2022/02/06 03:26:45;;;;;;;0.95;0.85;;;6.20;99.90;;;;;;5033905;28;20204;-80
2022/02/06 03:29:12;;;;;;;1.27;1.17;;;6.20;99.90;;;;;;5034005;28;20215;-80
2022/02/06 03:31:39;;;;;;;1.98;0.55;;;6.20;99.90;;;;;;5034273;28;20605;-80
2022/02/06 03:34:06;;;;;;;2.35;1.10;;;6.20;99.90;;;;;;5034898;28;20248;-80
2022/02/06 03:36:33;;;;;;;0.60;0.60;;;6.20;99.90;;;;;;5033715;28;20618;-80
2022/02/06 03:39:00;;;;;;;5.32;2.03;;;6.20;99.90;;;;;;5033866;28;20198;-80
2022/02/06 03:41:30;;;;;;;5.03;1.65;;;6.20;99.90;;;;;;5034689;28;20191;-81
2022/02/06 03:44:03;;;;;;;2.00;1.80;;;6.20;99.90;;;;;;5034720;28;20235;-80
2022/02/06 03:46:33;;;;;;;0.68;0.68;;;6.20;99.90;;;;;;5038644;28;20190;-80
2022/02/06 03:49:06;;;;;;;2.05;1.92;;;6.20;99.90;;;;;;5037864;28;20625;-78
2022/02/06 03:51:35;;;;;;;2.45;1.42;;;6.20;99.90;;;;;;5055473;28;20183;-79
2022/02/06 03:54:03;;;;;;;2.13;1.70;;;6.20;99.90;;;;;;5054680;28;20222;-78
2022/02/06 03:56:33;;;;;;;2.10;1.98;;;6.20;99.90;;;;;;5056106;28;20727;-79
2022/02/06 03:59:01;;;;;;;4.22;1.35;;;6.20;99.90;;;;;;5055114;28;20193;-80
2022/02/06 04:01:28;;;;;;;5.85;2.35;;;6.20;99.90;;;;;;5053699;28;20226;-80
2022/02/06 04:03:54;;;;;;;4.72;1.40;;;6.20;99.90;;;;;;5055031;28;20192;-80
2022/02/06 04:06:22;;;;;;;19.23;2.35;;;6.20;99.90;;;;;;5056080;28;20216;-80
2022/02/06 04:08:50;;;;;;;1.35;1.23;;;6.20;99.90;;;;;;5056019;28;20200;-78
2022/02/06 04:11:20;;;;;;;2.63;1.55;;;6.20;99.90;;;;;;5056044;28;20184;-80
2022/02/06 04:14:05;;;;;;;0.60;0.60;;;6.20;99.90;;;;;;5056589;28;20205;-81
2022/02/06 04:16:39;;;;;;;2.25;0.75;;;6.30;99.90;;;;;;5045540;28;20195;-81
2022/02/06 04:19:17;;;;;;;3.75;1.63;;;6.30;99.90;;;;;;5036087;28;20836;-80
2022/02/06 04:21:44;;;;;;;1.83;1.73;;;6.20;99.90;;;;;;5036426;28;20249;-80
2022/02/06 04:24:11;;;;;;;2.88;1.65;;;6.20;99.90;;;;;;5036083;28;20220;-79
2022/02/06 04:26:37;;;;;;;0.90;0.85;;;6.20;99.90;;;;;;5036258;28;20683;-80
2022/02/06 04:29:06;;;;;;;5.55;2.05;;;6.20;99.90;;;;;;5035183;28;20208;-80
2022/02/06 04:31:33;;;;;;;2.03;1.83;;;6.20;99.90;;;;;;5037081;28;20248;-80
2022/02/06 04:34:00;;;;;;;1.90;1.30;;;6.20;99.90;;;;;;5035887;28;20302;-79
2022/02/06 04:36:34;;;;;;;9.18;1.05;;;6.20;99.90;;;;;;5036015;28;20211;-80
2022/02/06 04:39:11;;;;;;;1.40;1.00;;;6.20;99.90;;;;;;5035567;28;20202;-80
2022/02/06 04:41:52;;;;;;;3.13;1.98;;;6.20;99.90;;;;;;5035770;28;20218;-79
2022/02/06 04:53:05;;;;;;;4.50;1.55;;;6.20;99.90;;;;;;5014529;28;20282;-80
2022/02/06 05:15:19;;;;;;;1.33;1.17;;;6.20;99.90;;;;;;5034911;28;20250;-79
2022/02/06 05:21:09;;;;;;;3.55;2.05;;;6.20;99.90;;;;;;5010104;28;20232;-79
2022/02/06 05:23:53;;;;;;;3.95;1.90;;;6.30;99.90;;;;;;5034911;28;20199;-78
2022/02/06 05:26:43;;;;;;;1.15;1.05;;;6.30;99.90;;;;;;5035714;28;20569;-81
2022/02/06 05:29:20;;;;;;;4.05;2.25;;;6.30;99.90;;;;;;5035490;28;20679;-80
2022/02/06 05:31:59;;;;;;;1.63;1.52;;;6.30;99.90;;;;;;5035873;28;20203;-80
2022/02/06 05:34:27;;;;;;;3.38;1.33;;;6.30;99.90;;;;;;5036380;28;20214;-80
2022/02/06 05:36:54;;;;;;;2.67;1.30;;;6.30;99.90;;;;;;5036141;28;20195;-80
2022/02/06 05:39:21;;;;;;;2.88;1.83;;;6.30;99.90;;;;;;5035000;28;20225;-81
2022/02/06 05:41:48;;;;;;;1.83;1.73;;;6.30;99.90;;;;;;5023130;28;20203;-79
2022/02/06 05:44:14;;;;;;;0.52;0.52;;;6.30;99.90;;;;;;5029690;28;20194;-79
2022/02/06 05:46:42;;;;;;;1.02;0.90;;;6.30;99.90;;;;;;5035709;28;20199;-79
2022/02/06 05:49:11;;;;;;;2.20;1.92;;;6.30;99.90;;;;;;5035100;28;20215;-80
2022/02/06 05:51:39;;;;;;;1.38;1.27;;;6.30;99.90;;;;;;5035587;28;20226;-79
2022/02/06 05:54:07;;;;;;;1.05;1.05;;;6.30;99.90;;;;;;5035374;28;20269;-79
2022/02/06 05:56:34;;;;;;;0.50;0.45;;;6.40;99.90;;;;;;5034678;28;20194;-79
2022/02/06 05:59:02;;;;;;;3.63;2.50;;;6.40;99.90;;;;;;5034791;28;20223;-80
2022/02/06 06:01:29;;;;;;;5.82;2.65;;;6.40;99.90;;;;;;5036933;28;20188;-79
2022/02/06 06:03:55;;;;;;;2.95;1.60;;;6.40;99.90;;;;;;5034738;28;20195;-78
2022/02/06 06:06:22;;;;;;;4.50;1.45;;;6.40;99.90;;;;;;5035212;28;20199;-80
2022/02/06 06:08:50;;;;;;;2.40;1.58;;;6.40;99.90;;;;;;5035066;28;20199;-78
2022/02/06 06:11:17;;;;;;;1.35;0.88;;;6.40;99.90;;;;;;5034549;28;20224;-79
2022/02/06 06:13:44;;;;;;;2.28;1.40;;;6.40;99.90;;;;;;5033490;28;20195;-79
2022/02/06 06:16:10;;;;;;;1.10;1.05;;;6.40;99.90;;;;;;5033354;28;20192;-78
2022/02/06 06:18:37;;;;;;;1.63;1.52;;;6.40;99.90;;;;;;5033392;28;20195;-79
2022/02/06 06:21:05;;;;;;;1.83;1.40;;;6.50;99.90;;;;;;5033993;28;20319;-78
2022/02/06 06:23:31;;;;;;;1.70;1.60;;;6.50;99.90;;;;;;5033958;28;20250;-80
2022/02/06 06:25:59;;;;;;;1.45;0.98;;;6.50;99.90;;;;;;5034174;28;20196;-79
2022/02/06 06:28:26;;;;;;;0.80;0.70;;;6.50;99.90;;;;;;5035352;28;20664;-79
2022/02/06 06:30:55;;;;;;;1.05;1.02;;;6.50;99.90;;;;;;5034304;28;20224;-79
2022/02/06 06:33:22;;;;;;;0.63;0.57;;;6.50;99.90;;;;;;5034637;28;20258;-79
2022/02/06 06:35:50;;;;;;;1.40;1.25;;;6.50;99.90;;;;;;5034328;28;20307;-79
2022/02/06 06:38:17;;;;;;;1.40;1.30;;;6.50;99.90;;;;;;5034395;28;20197;-79
2022/02/06 06:40:44;;;;;;;0.50;0.50;;;6.50;99.90;;;;;;5033927;28;20235;-79
2022/02/06 06:43:12;;;;;;;2.05;1.30;;;6.60;99.90;;;;;;5033712;28;20199;-81
2022/02/06 06:45:39;;;;;;;4.20;1.05;;;6.60;99.90;;;;;;5035267;28;20196;-79
2022/02/06 06:48:06;;;;;;;1.83;1.73;;;6.60;99.90;;;;;;5034029;28;20258;-79
2022/02/06 06:50:33;;;;;;;1.90;1.80;;;6.60;99.90;;;;;;5033531;28;20220;-79
2022/02/06 06:53:01;;;;;;;0.80;0.80;;;6.60;99.90;;;;;;5033471;28;20589;-79
2022/02/06 06:55:30;;;;;;;1.23;1.10;;;6.60;99.90;;;;;;5033401;28;20214;-79
2022/02/06 06:58:06;;;;;;;1.55;1.45;;;6.60;99.90;;;;;;5034302;28;20198;-79
2022/02/06 07:00:40;;;;;;;1.27;1.20;;;6.60;99.90;;;;;;5032960;28;20223;-79
2022/02/06 07:03:07;;;;;;;1.33;1.23;;;6.60;99.90;;;;;;5034136;28;20183;-78
2022/02/06 07:05:33;;;;;;;1.17;1.08;;;6.60;99.90;;;;;;5033929;28;20196;-79
2022/02/06 07:08:00;;;;;;;1.75;1.50;;;6.60;99.90;;;;;;5038416;28;20664;-78
2022/02/06 07:10:27;;;;;;;1.50;1.40;;;6.60;99.90;;;;;;5039533;28;20244;-78
2022/02/06 07:12:54;;;;;;;1.48;1.38;;;6.70;99.90;;;;;;5041383;28;20203;-79
2022/02/06 07:15:21;;;;;;;4.78;3.22;;;6.70;99.90;;;;;;5042180;28;20215;-79
2022/02/06 07:17:49;;;;;;;0.98;0.98;;;6.70;99.90;;;;;;5043819;28;20197;-78
2022/02/06 07:20:16;;;;;;;0.80;0.80;;;6.70;99.90;;;;;;5044956;28;20765;-78
2022/02/06 07:22:45;;;;;;;2.15;1.45;;;6.70;99.90;;;;;;5048411;28;20205;-78
2022/02/06 07:25:11;;;;;;;4.80;2.35;;;6.70;99.90;;;;;;5043797;28;20203;-77
2022/02/06 07:27:41;;;;;;;1.23;1.13;;;6.70;99.90;;;;;;5041969;28;20259;-78
2022/02/06 07:30:10;;;;;;;0.50;0.50;;;6.80;99.90;;;;;;5041126;28;20227;-78
2022/02/06 07:32:38;;;;;;;1.00;0.68;;;6.80;99.90;;;;;;5041550;28;20196;-77
2022/02/06 07:35:09;;;;;;;1.05;1.05;;;6.80;99.90;;;;;;5044857;28;20217;-78
2022/02/06 07:37:36;;;;;;;1.60;1.50;;;6.80;99.90;;;;;;5047500;28;20257;-78
2022/02/06 07:40:03;;;;;;;5.07;2.65;;;6.80;99.90;;;;;;5045924;28;20219;-78
2022/02/06 07:42:30;;;;;;;1.13;1.13;;;6.80;99.90;;;;;;5047512;28;20681;-78
2022/02/06 07:44:56;;;;;;;0.98;0.60;;;6.80;99.90;;;;;;5046222;28;20196;-78
2022/02/06 07:47:24;;;;;;;1.83;1.73;;;6.80;99.90;;;;;;5048069;28;20191;-78
2022/02/06 07:49:52;;;;;;;2.10;1.90;;;6.80;99.90;;;;;;5046606;28;20230;-77
2022/02/06 07:52:22;;;;;;;0.55;0.50;;;6.80;99.90;;;;;;5046759;28;20199;-80
2022/02/06 07:54:49;;;;;;;0.80;0.68;;;6.80;99.90;;;;;;5049347;28;20218;-78
2022/02/06 07:57:15;;;;;;;0.98;0.88;;;6.80;99.90;;;;;;5047550;28;20196;-78
2022/02/06 07:59:42;;;;;;;5.32;2.45;;;6.80;99.90;;;;;;5044604;28;20251;-78
2022/02/06 08:02:09;;;;;;;0.60;0.50;;;6.80;99.90;;;;;;5043761;28;20199;-78
2022/02/06 08:04:36;;;;;;;0.60;0.60;;;6.80;99.90;;;;;;5044433;28;20200;-78
2022/02/06 08:07:04;;;;;;;0.82;0.82;;;6.80;99.90;;;;;;5044401;28;20209;-79
2022/02/06 08:09:45;;;;;;;0.98;0.80;;;6.80;99.90;;;;;;5043829;28;20284;-78
2022/02/06 08:12:14;;;;;;;1.27;1.17;;;6.80;99.90;;;;;;5045059;28;20192;-78
2022/02/06 08:14:51;;;;;;;1.00;1.00;;;6.80;99.90;;;;;;5044137;28;20611;-78
2022/02/06 08:17:18;;;;;;;0.70;0.70;;;6.80;99.90;;;;;;5043773;28;20201;-78
2022/02/06 08:19:45;;;;;;;2.65;1.40;;;6.80;99.90;;;;;;5043650;28;20294;-78
2022/02/06 08:22:12;;;;;;;1.02;0.80;;;6.80;99.90;;;;;;5043795;28;20701;-78
2022/02/06 08:24:40;;;;;;;0.95;0.70;;;6.80;99.90;;;;;;5044185;28;20759;-78
2022/02/06 08:27:06;;;;;;;0.50;0.50;;;6.80;99.90;;;;;;5042707;28;20203;-78
2022/02/06 08:29:36;;;;;;;0.77;0.73;;;6.80;99.90;;;;;;5038570;28;20220;-77
2022/02/06 08:32:02;;;;;;;1.83;1.27;;;6.80;99.90;;;;;;5038756;28;20280;-78
2022/02/06 08:34:29;;;;;;;0.50;0.50;;;6.80;99.90;;;;;;5043985;28;20200;-78
2022/02/06 08:36:56;;;;;;;2.78;2.58;;;6.80;99.90;;;;;;5046078;28;20219;-78
2022/02/06 08:39:23;;;;;;;3.30;1.25;;;6.90;99.90;;;;;;5042698;28;20227;-77
2022/02/06 08:41:50;;;;;;;1.45;1.35;;;6.90;99.90;;;;;;5040684;28;20207;-78
2022/02/06 08:44:17;;;;;;;2.25;0.90;;;6.90;99.90;;;;;;5038158;28;20254;-78
2022/02/06 08:46:44;;;;;;;5.95;1.02;;;6.80;99.90;;;;;;5039537;28;20666;-77
2022/02/06 08:49:10;;;;;;;0.50;0.50;;;6.90;99.90;;;;;;5039663;28;20678;-77
2022/02/06 08:51:37;;;;;;;0.68;0.68;;;6.90;99.90;;;;;;5039122;28;20607;-78
2022/02/06 08:54:05;;;;;;;1.17;1.05;;;6.90;99.90;;;;;;5039849;28;20616;-78
2022/02/06 08:56:33;;;;;;;1.45;1.08;;;6.90;99.90;;;;;;5039162;28;20282;-78
2022/02/06 08:59:01;;;;;;;0.93;0.93;;;6.90;99.90;;;;;;5039347;28;20195;-77
2022/02/06 09:01:28;;;;;;;0.60;0.60;;;6.90;99.90;;;;;;5039562;28;20210;-78
2022/02/06 09:03:56;;;;;;;0.98;0.88;;;6.90;99.90;;;;;;5035907;28;20230;-78
2022/02/06 09:06:22;;;;;;;0.60;0.60;;;6.90;99.90;;;;;;5039925;28;20404;-78
2022/02/06 09:08:54;;;;;;;0.50;0.40;;;6.90;99.90;;;;;;5038647;28;20225;-77
2022/02/06 09:11:22;;;;;;;0.50;0.40;;;6.90;99.90;;;;;;5040446;28;20197;-77
2022/02/06 09:13:49;;;;;;;0.90;0.90;;;7.00;99.90;;;;;;5040855;28;20198;-78
2022/02/06 09:16:17;;;;;;;1.00;1.00;;;7.00;99.90;;;;;;5044733;28;20209;-79
2022/02/06 09:18:44;;;;;;;0.60;0.60;;;7.00;99.90;;;;;;5045199;28;20196;-78
2022/02/06 09:21:10;;;;;;;1.08;0.98;;;7.00;99.90;;;;;;5045650;28;20223;-78
2022/02/06 09:23:37;;;;;;;2.00;1.23;;;7.00;99.90;;;;;;5045713;28;20250;-77
2022/02/06 09:26:04;;;;;;;0.60;0.60;;;7.10;99.90;;;;;;5045921;28;20222;-78
2022/02/06 09:28:30;;;;;;;1.15;0.60;;;7.10;99.90;;;;;;5045849;28;20751;-78
2022/02/06 09:30:57;;;;;;;1.00;1.00;;;7.10;99.90;;;;;;5044702;28;20220;-79
2022/02/06 09:35:51;;;;;;;0.82;0.82;;;7.10;99.90;;;;;;5044888;28;20312;-78
2022/02/06 09:38:18;;;;;;;1.38;0.75;;;7.10;99.90;;;;;;5043765;28;20201;-78
2022/02/06 09:40:46;;;;;;;0.70;0.60;;;7.10;99.90;;;;;;5047469;28;20222;-79
2022/02/06 09:43:14;;;;;;;0.80;0.70;;;7.10;99.90;;;;;;5040112;28;20197;-78
2022/02/06 09:45:42;;;;;;;0.50;0.50;;;7.20;99.90;;;;;;5036873;28;20191;-78
2022/02/06 09:48:11;;;;;;;1.15;0.93;;;7.20;99.90;;;;;;5035897;28;20738;-78
2022/02/06 09:50:40;;;;;;;0.50;0.50;;;7.20;99.90;;;;;;5035316;28;20259;-78
2022/02/06 09:53:06;;;;;;;0.80;0.80;;;7.20;99.90;;;;;;5033792;28;20253;-78
2022/02/06 09:55:33;;;;;;;5.03;1.25;;;7.20;99.90;;;;;;5033418;28;20215;-78
2022/02/06 09:58:15;;;;;;;5.88;2.40;;;7.20;99.90;;;;;;5033567;28;20202;-79
2022/02/06 10:00:43;;;;;;;1.10;0.82;;;7.20;99.90;;;;;;5033352;28;20231;-78
2022/02/06 10:03:13;;;;;;;4.53;1.80;;;7.20;99.90;;;;;;5036596;28;20218;-79
2022/02/06 10:05:44;;;;;;;0.70;0.70;;;7.20;99.90;;;;;;5036667;28;20187;-77
2022/02/06 10:08:14;;;;;;;0.82;0.60;;;7.20;99.90;;;;;;5034864;28;20607;-78
2022/02/06 10:10:49;;;;;;;2.28;2.08;;;7.20;99.90;;;;;;5035725;28;20228;-78
2022/02/06 10:13:15;;;;;;;1.23;0.60;;;7.20;99.90;;;;;;5036010;28;20200;-79
2022/02/06 10:15:42;;;;;;;0.98;0.60;;;7.10;99.90;;;;;;5051128;28;20200;-79
2022/02/06 10:18:09;;;;;;;0.50;0.50;;;7.10;99.90;;;;;;5052586;28;20229;-78
2022/02/06 10:20:46;;;;;;;1.27;0.73;;;7.10;99.90;;;;;;5050154;28;20222;-78
2022/02/06 10:23:24;;;;;;;1.17;1.08;;;7.10;99.90;;;;;;5049282;28;20185;-79
2022/02/06 10:25:53;;;;;;;0.55;0.55;;;7.10;99.90;;;;;;5049081;28;20176;-79
2022/02/06 10:28:34;;;;;;;1.27;0.75;;;7.10;99.90;;;;;;5047712;28;20746;-78
2022/02/06 10:31:04;;;;;;;1.13;1.02;;;7.00;99.90;;;;;;5049855;28;20220;-79
2022/02/06 10:33:44;;;;;;;0.40;0.40;;;7.00;99.90;;;;;;5050396;28;20671;-78
2022/02/06 10:36:14;;;;;;;0.50;0.50;;;7.00;99.90;;;;;;5041830;28;20207;-79
2022/02/06 10:38:41;;;;;;;0.57;0.50;;;7.00;99.90;;;;;;5036135;28;20179;-79
2022/02/06 10:41:11;;;;;;;0.90;0.80;;;7.00;99.90;;;;;;5035635;28;20585;-79
2022/02/06 10:43:40;;;;;;;0.75;0.60;;;7.00;99.90;;;;;;5034567;28;20243;-79
2022/02/06 10:46:09;;;;;;;0.40;0.40;;;7.00;99.90;;;;;;5035481;28;20193;-79
2022/02/06 10:48:44;;;;;;;1.23;0.70;;;7.00;99.90;;;;;;5035068;28;20670;-78
2022/02/06 10:51:29;;;;;;;0.50;0.40;;;7.00;99.90;;;;;;5034228;28;20269;-79
2022/02/06 10:53:59;;;;;;;10.07;1.02;;;7.00;99.90;;;;;;5032466;28;20192;-78
2022/02/06 10:56:26;;;;;;;0.65;0.65;;;7.00;99.90;;;;;;5041231;28;20236;-77
2022/02/06 10:58:59;;;;;;;0.65;0.65;;;7.00;99.90;;;;;;5040262;28;20202;-78
2022/02/06 11:01:29;;;;;;;0.50;0.40;;;7.00;99.90;;;;;;5034610;28;20229;-78
2022/02/06 11:04:13;;;;;;;0.70;0.70;;;7.00;99.90;;;;;;5037521;28;20226;-79
2022/02/06 11:06:46;;;;;;;0.50;0.40;;;6.90;99.90;;;;;;5034709;28;20266;-78
2022/02/06 11:09:23;;;;;;;1.10;0.47;;;6.90;99.90;;;;;;5034127;28;20584;-80
2022/02/06 11:11:50;;;;;;;0.50;0.40;;;6.90;99.90;;;;;;5034378;28;20588;-81
2022/02/06 11:14:22;;;;;;;0.75;0.75;;;6.90;99.90;;;;;;5034823;28;20248;-80
2022/02/06 11:16:50;;;;;;;0.55;0.50;;;6.90;99.90;;;;;;5034778;28;20226;-80
2022/02/06 11:19:18;;;;;;;1.05;0.95;;;6.90;99.90;;;;;;5034192;28;20252;-80
2022/02/06 11:21:47;;;;;;;1.02;0.70;;;6.90;99.90;;;;;;5034643;28;20256;-80
2022/02/06 11:24:21;;;;;;;0.70;0.70;;;6.90;99.90;;;;;;5033910;28;20198;-79
2022/02/06 11:26:48;;;;;;;0.50;0.47;;;6.90;99.90;;;;;;5032892;28;20247;-78
2022/02/06 11:29:15;;;;;;;0.60;0.60;;;6.90;99.90;;;;;;5032915;28;20771;-78
2022/02/06 11:31:42;;;;;;;1.40;0.80;;;6.90;99.90;;;;;;5034685;28;20211;-78
2022/02/06 11:34:12;;;;;;;0.95;0.85;;;6.90;99.90;;;;;;5033290;28;20200;-80
2022/02/06 11:45:21;;;;;;;1.25;0.70;;;7.00;99.90;;;;;;5033364;28;20202;-79
2022/02/06 11:47:53;;;;;;;0.40;0.40;;;7.00;99.90;;;;;;5034932;28;20196;-80
2022/02/06 11:50:20;;;;;;;1.45;0.73;;;7.00;99.90;;;;;;5033366;28;20220;-79
2022/02/06 11:52:56;;;;;;;0.60;0.52;;;7.00;99.90;;;;;;5034388;28;20218;-79
2022/02/06 11:55:38;;;;;;;0.50;0.50;;;7.00;99.90;;;;;;5034657;28;20637;-79
2022/02/06 11:58:26;;;;;;;0.50;0.40;;;7.00;99.90;;;;;;5034053;28;20676;-79
2022/02/06 12:01:25;;;;;;;0.40;0.40;;;7.00;99.90;;;;;;5034568;28;20811;-79
2022/02/06 12:04:01;;;;;;;0.40;0.40;;;7.00;99.90;;;;;;5034268;28;20284;-80
2022/02/06 12:06:29;;;;;;;0.40;0.30;;;7.00;99.90;;;;;;5038471;28;20187;-78
2022/02/06 12:09:12;;;;;;;0.50;0.47;;;7.00;99.90;;;;;;5039929;28;20307;-80
2022/02/06 12:11:41;;;;;;;1.33;0.70;;;7.00;99.90;;;;;;5038503;28;20283;-79
2022/02/06 12:14:13;;;;;;;0.60;0.60;;;7.00;99.90;;;;;;5038459;28;20204;-80
2022/02/06 12:16:49;;;;;;;0.90;0.70;;;7.00;99.90;;;;;;5037894;28;20591;-80
2022/02/06 12:19:27;;;;;;;1.33;0.80;;;7.00;99.90;;;;;;5037739;28;20216;-80
2022/02/06 12:21:54;;;;;;;0.50;0.40;;;7.00;99.90;;;;;;5038223;28;20236;-79
2022/02/06 12:24:37;;;;;;;0.50;0.50;;;7.00;99.90;;;;;;5037807;28;20612;-79
2022/02/06 12:27:25;;;;;;;2.88;0.50;;;7.00;99.90;;;;;;5037593;28;20189;-79
2022/02/06 12:29:59;;;;;;;0.68;0.68;;;7.00;99.90;;;;;;5037097;28;20609;-79
2022/02/06 12:32:29;;;;;;;0.60;0.60;;;7.10;99.90;;;;;;5037401;28;20269;-80
2022/02/06 12:37:41;;;;;;;0.50;0.50;;;7.10;99.90;;;;;;5038024;28;20298;-80
2022/02/06 12:40:10;;;;;;;0.43;0.40;;;7.10;99.90;;;;;;5037618;28;20216;-79
2022/02/06 12:42:40;;;;;;;0.77;0.77;;;7.20;99.90;;;;;;5036779;28;20201;-79
2022/02/06 12:45:09;;;;;;;0.60;0.50;;;7.20;99.90;;;;;;5035979;28;20200;-79
2022/02/06 12:47:41;;;;;;;0.60;0.60;;;7.20;99.90;;;;;;5037141;28;20668;-79
2022/02/06 12:50:21;;;;;;;1.00;0.55;;;7.30;99.90;;;;;;5036443;28;20778;-82
2022/02/06 12:52:49;;;;;;;1.08;0.98;;;7.40;99.90;;;;;;5036317;28;20200;-79
2022/02/06 12:55:16;;;;;;;0.50;0.40;;;7.40;99.90;;;;;;5035995;28;20210;-80
2022/02/06 12:57:49;;;;;;;2.20;1.02;;;7.40;99.90;;;;;;5036438;28;20209;-79
2022/02/06 13:00:27;;;;;;;0.70;0.70;;;7.50;99.90;;;;;;5035519;28;20228;-79
2022/02/06 13:03:15;;;;;;;1.88;1.40;;;7.50;99.90;;;;;;5036588;28;20194;-79
2022/02/06 13:05:50;;;;;;;1.13;1.02;;;7.60;99.90;;;;;;5036619;28;20313;-79
2022/02/06 13:08:17;;;;;;;0.47;0.43;;;7.70;99.90;;;;;;5037013;28;20176;-81
2022/02/06 13:10:53;;;;;;;0.88;0.88;;;7.70;99.90;;;;;;5036033;28;20639;-79
2022/02/06 13:13:26;;;;;;;0.40;0.30;;;7.60;99.90;;;;;;5036508;28;20244;-77
2022/02/06 13:16:04;;;;;;;0.60;0.50;;;7.50;99.90;;;;;;5037986;28;20389;-79
2022/02/06 13:21:31;;;;;;;0.40;0.30;;;7.30;99.90;;;;;;5010358;28;20193;-78
2022/02/06 13:24:23;;;;;;;0.40;0.40;;;7.00;99.90;;;;;;5040893;28;20183;-79
2022/02/06 13:27:05;;;;;;;0.60;0.60;;;6.90;99.90;;;;;;5043632;28;20200;-79
2022/02/06 13:29:42;;;;;;;0.50;0.50;;;6.70;99.90;;;;;;5041961;28;20226;-79
2022/02/06 13:32:25;;;;;;;0.40;0.40;;;6.60;99.90;;;;;;5040883;28;20607;-78
2022/02/06 13:35:07;;;;;;;0.40;0.30;;;6.50;99.90;;;;;;5040799;28;20195;-79
2022/02/06 13:37:44;;;;;;;0.40;0.30;;;6.50;99.90;;;;;;5038742;28;20204;-79
2022/02/06 13:40:16;;;;;;;0.40;0.30;;;6.50;99.90;;;;;;5037318;28;20218;-79
2022/02/06 13:42:56;;;;;;;0.98;0.98;;;6.60;99.90;;;;;;5039224;28;20185;-79
2022/02/06 13:45:25;;;;;;;0.77;0.75;;;6.60;99.90;;;;;;5038759;28;20533;-78
2022/02/06 13:47:54;;;;;;;0.40;0.30;;;6.60;99.90;;;;;;5038266;28;20664;-79
2022/02/06 13:50:22;;;;;;;0.40;0.40;;;6.50;99.90;;;;;;5040866;28;20219;-79
2022/02/06 13:53:06;;;;;;;0.40;0.40;;;6.50;99.90;;;;;;5039608;28;20199;-79
2022/02/06 13:55:32;;;;;;;0.80;0.50;;;6.40;99.90;;;;;;5041842;28;20206;-78
2022/02/06 13:57:59;;;;;;;0.40;0.40;;;6.30;99.90;;;;;;5041410;28;20282;-78
2022/02/06 14:00:27;;;;;;;0.40;0.30;;;6.30;99.90;;;;;;5035611;28;20647;-80
2022/02/06 14:02:55;;;;;;;1.50;0.82;;;6.30;99.90;;;;;;5039208;28;20207;-80
2022/02/06 14:05:25;;;;;;;0.40;0.40;;;6.30;99.90;;;;;;5044706;28;20198;-81
2022/02/06 14:08:03;;;;;;;0.40;0.38;;;6.30;99.90;;;;;;5043183;28;20202;-79
2022/02/06 14:10:40;;;;;;;0.40;0.40;;;6.30;99.90;;;;;;5042194;28;20750;-78
2022/02/06 14:13:08;;;;;;;0.50;0.40;;;6.30;99.90;;;;;;5040968;28;20200;-78
2022/02/06 14:15:36;;;;;;;0.40;0.35;;;6.30;99.90;;;;;;5037792;28;20203;-78
2022/02/06 14:18:06;;;;;;;0.40;0.30;;;6.30;99.90;;;;;;5036073;28;20219;-80
2022/02/06 14:20:33;;;;;;;0.88;0.88;;;6.40;99.90;;;;;;5035338;28;20253;-81
2022/02/06 14:23:04;;;;;;;0.40;0.38;;;6.40;99.90;;;;;;5036066;28;20565;-78
2022/02/06 14:25:32;;;;;;;0.40;0.40;;;6.40;99.90;;;;;;5036429;28;20195;-78
2022/02/06 14:28:15;;;;;;;0.40;0.30;;;6.40;99.90;;;;;;5036206;28;20191;-78
2022/02/06 14:30:43;;;;;;;0.40;0.30;;;6.40;99.90;;;;;;5036745;28;20234;-79
2022/02/06 14:33:12;;;;;;;0.60;0.60;;;6.40;99.90;;;;;;5036989;28;20193;-79
2022/02/06 14:35:41;;;;;;;0.40;0.35;;;6.50;99.90;;;;;;5035683;28;20196;-78
2022/02/06 14:38:12;;;;;;;0.40;0.35;;;6.50;99.90;;;;;;5034904;28;20212;-78
2022/02/06 14:40:49;;;;;;;2.25;0.82;;;6.50;99.90;;;;;;5034865;28;20266;-78
2022/02/06 14:43:15;;;;;;;0.40;0.30;;;6.60;99.90;;;;;;5033984;28;20285;-79